sensor_id;sensor_type;location;lat;lon;timestamp;P1;durP1;ratioP1;P2;durP2;ratioP2
48040;SDS011;33815;48.386;11.738;2023-12-04T00:01:27;29.00;;;13.85;;
48040;SDS011;33815;48.386;11.738;2023-12-04T00:03:53;27.35;;;14.07;;
48040;SDS011;33815;48.386;11.738;2023-12-04T00:06:18;26.75;;;13.45;;
48040;SDS011;33815;48.386;11.738;2023-12-04T00:08:44;25.13;;;14.63;;
48040;SDS011;33815;48.386;11.738;2023-12-04T00:11:09;26.00;;;14.15;;
48040;SDS011;33815;48.386;11.738;2023-12-04T00:13:34;28.92;;;15.77;;
48040;SDS011;33815;48.386;11.738;2023-12-04T00:16:00;30.17;;;15.55;;
48040;SDS011;33815;48.386;11.738;2023-12-04T00:18:25;30.88;;;15.07;;
48040;SDS011;33815;48.386;11.738;2023-12-04T00:20:51;32.13;;;15.38;;
48040;SDS011;33815;48.386;11.738;2023-12-04T00:23:16;27.80;;;13.82;;
48040;SDS011;33815;48.386;11.738;2023-12-04T00:25:41;28.25;;;15.13;;
48040;SDS011;33815;48.386;11.738;2023-12-04T00:28:07;35.70;;;16.00;;
48040;SDS011;33815;48.386;11.738;2023-12-04T00:30:32;31.92;;;16.58;;
48040;SDS011;33815;48.386;11.738;2023-12-04T00:32:57;27.77;;;15.05;;
48040;SDS011;33815;48.386;11.738;2023-12-04T00:35:22;34.85;;;16.85;;
48040;SDS011;33815;48.386;11.738;2023-12-04T00:37:48;37.33;;;16.42;;
48040;SDS011;33815;48.386;11.738;2023-12-04T00:40:13;37.58;;;16.58;;
48040;SDS011;33815;48.386;11.738;2023-12-04T00:42:38;32.10;;;16.60;;
48040;SDS011;33815;48.386;11.738;2023-12-04T00:45:04;29.55;;;15.85;;
48040;SDS011;33815;48.386;11.738;2023-12-04T00:47:29;35.03;;;17.55;;
48040;SDS011;33815;48.386;11.738;2023-12-04T00:49:55;32.95;;;16.13;;
48040;SDS011;33815;48.386;11.738;2023-12-04T00:52:20;31.45;;;16.02;;
48040;SDS011;33815;48.386;11.738;2023-12-04T00:54:45;32.47;;;16.40;;
48040;SDS011;33815;48.386;11.738;2023-12-04T00:57:10;35.53;;;16.05;;
48040;SDS011;33815;48.386;11.738;2023-12-04T00:59:36;31.52;;;16.95;;
48040;SDS011;33815;48.386;11.738;2023-12-04T01:02:01;35.95;;;17.40;;
48040;SDS011;33815;48.386;11.738;2023-12-04T01:04:26;37.42;;;17.85;;
48040;SDS011;33815;48.386;11.738;2023-12-04T01:06:52;37.80;;;18.55;;
48040;SDS011;33815;48.386;11.738;2023-12-04T01:09:17;32.53;;;17.35;;
48040;SDS011;33815;48.386;11.738;2023-12-04T01:11:43;36.50;;;17.20;;
48040;SDS011;33815;48.386;11.738;2023-12-04T01:14:08;38.17;;;16.70;;
48040;SDS011;33815;48.386;11.738;2023-12-04T01:16:33;30.98;;;18.27;;
48040;SDS011;33815;48.386;11.738;2023-12-04T01:18:59;37.20;;;16.30;;
48040;SDS011;33815;48.386;11.738;2023-12-04T01:21:24;37.15;;;16.20;;
48040;SDS011;33815;48.386;11.738;2023-12-04T01:23:49;34.65;;;17.30;;
48040;SDS011;33815;48.386;11.738;2023-12-04T01:26:15;31.67;;;16.25;;
48040;SDS011;33815;48.386;11.738;2023-12-04T01:28:40;35.53;;;16.85;;
48040;SDS011;33815;48.386;11.738;2023-12-04T01:31:06;32.53;;;16.35;;
48040;SDS011;33815;48.386;11.738;2023-12-04T01:33:31;33.47;;;15.77;;
48040;SDS011;33815;48.386;11.738;2023-12-04T01:35:56;37.00;;;17.33;;
48040;SDS011;33815;48.386;11.738;2023-12-04T01:38:21;36.83;;;17.13;;
48040;SDS011;33815;48.386;11.738;2023-12-04T01:40:47;43.58;;;18.98;;
48040;SDS011;33815;48.386;11.738;2023-12-04T01:43:12;39.00;;;16.70;;
48040;SDS011;33815;48.386;11.738;2023-12-04T01:45:37;35.92;;;16.60;;
48040;SDS011;33815;48.386;11.738;2023-12-04T01:48:03;34.63;;;16.25;;
48040;SDS011;33815;48.386;11.738;2023-12-04T01:50:30;39.03;;;17.85;;
48040;SDS011;33815;48.386;11.738;2023-12-04T01:52:56;36.67;;;17.50;;
48040;SDS011;33815;48.386;11.738;2023-12-04T01:55:21;33.17;;;16.20;;
48040;SDS011;33815;48.386;11.738;2023-12-04T01:57:47;34.40;;;16.67;;
48040;SDS011;33815;48.386;11.738;2023-12-04T02:00:13;29.40;;;15.20;;
48040;SDS011;33815;48.386;11.738;2023-12-04T02:02:39;32.50;;;15.75;;
48040;SDS011;33815;48.386;11.738;2023-12-04T02:05:07;37.10;;;16.08;;
48040;SDS011;33815;48.386;11.738;2023-12-04T02:07:33;39.33;;;16.00;;
48040;SDS011;33815;48.386;11.738;2023-12-04T02:09:58;34.30;;;15.50;;
48040;SDS011;33815;48.386;11.738;2023-12-04T02:12:24;34.17;;;15.57;;
48040;SDS011;33815;48.386;11.738;2023-12-04T02:14:50;33.55;;;16.90;;
48040;SDS011;33815;48.386;11.738;2023-12-04T02:17:16;33.20;;;16.73;;
48040;SDS011;33815;48.386;11.738;2023-12-04T02:19:42;31.73;;;15.15;;
48040;SDS011;33815;48.386;11.738;2023-12-04T02:22:07;26.58;;;14.05;;
48040;SDS011;33815;48.386;11.738;2023-12-04T02:24:32;37.20;;;16.58;;
48040;SDS011;33815;48.386;11.738;2023-12-04T02:27:04;33.45;;;16.17;;
48040;SDS011;33815;48.386;11.738;2023-12-04T02:29:37;32.70;;;14.82;;
48040;SDS011;33815;48.386;11.738;2023-12-04T02:32:06;38.05;;;16.85;;
48040;SDS011;33815;48.386;11.738;2023-12-04T02:34:35;31.92;;;15.27;;
48040;SDS011;33815;48.386;11.738;2023-12-04T02:37:02;27.38;;;14.45;;
48040;SDS011;33815;48.386;11.738;2023-12-04T02:39:29;34.38;;;15.80;;
48040;SDS011;33815;48.386;11.738;2023-12-04T02:41:54;35.10;;;15.73;;
48040;SDS011;33815;48.386;11.738;2023-12-04T02:44:20;33.55;;;16.45;;
48040;SDS011;33815;48.386;11.738;2023-12-04T02:46:45;32.00;;;15.88;;
48040;SDS011;33815;48.386;11.738;2023-12-04T02:49:10;32.42;;;15.73;;
48040;SDS011;33815;48.386;11.738;2023-12-04T02:51:35;26.65;;;13.85;;
48040;SDS011;33815;48.386;11.738;2023-12-04T02:54:01;34.78;;;17.00;;
48040;SDS011;33815;48.386;11.738;2023-12-04T02:56:26;29.38;;;15.32;;
48040;SDS011;33815;48.386;11.738;2023-12-04T02:58:51;34.03;;;15.23;;
48040;SDS011;33815;48.386;11.738;2023-12-04T03:01:16;33.35;;;15.60;;
48040;SDS011;33815;48.386;11.738;2023-12-04T03:03:42;29.75;;;14.60;;
48040;SDS011;33815;48.386;11.738;2023-12-04T03:06:07;29.92;;;15.45;;
48040;SDS011;33815;48.386;11.738;2023-12-04T03:08:32;36.10;;;16.42;;
48040;SDS011;33815;48.386;11.738;2023-12-04T03:10:58;25.85;;;14.02;;
48040;SDS011;33815;48.386;11.738;2023-12-04T03:13:23;28.60;;;14.00;;
48040;SDS011;33815;48.386;11.738;2023-12-04T03:15:48;31.42;;;14.73;;
48040;SDS011;33815;48.386;11.738;2023-12-04T03:18:14;29.92;;;14.20;;
48040;SDS011;33815;48.386;11.738;2023-12-04T03:20:39;29.17;;;13.20;;
48040;SDS011;33815;48.386;11.738;2023-12-04T03:23:04;28.05;;;14.18;;
48040;SDS011;33815;48.386;11.738;2023-12-04T03:25:29;36.65;;;15.38;;
48040;SDS011;33815;48.386;11.738;2023-12-04T03:27:55;29.05;;;14.02;;
48040;SDS011;33815;48.386;11.738;2023-12-04T03:30:20;33.83;;;14.88;;
48040;SDS011;33815;48.386;11.738;2023-12-04T03:32:45;27.35;;;14.10;;
48040;SDS011;33815;48.386;11.738;2023-12-04T03:35:11;28.20;;;13.98;;
48040;SDS011;33815;48.386;11.738;2023-12-04T03:37:36;28.05;;;13.65;;
48040;SDS011;33815;48.386;11.738;2023-12-04T03:40:02;32.70;;;13.85;;
48040;SDS011;33815;48.386;11.738;2023-12-04T03:42:27;29.98;;;14.43;;
48040;SDS011;33815;48.386;11.738;2023-12-04T03:44:52;23.48;;;13.23;;
48040;SDS011;33815;48.386;11.738;2023-12-04T03:47:18;30.77;;;12.48;;
48040;SDS011;33815;48.386;11.738;2023-12-04T03:49:43;27.17;;;12.68;;
48040;SDS011;33815;48.386;11.738;2023-12-04T03:52:08;20.95;;;12.25;;
48040;SDS011;33815;48.386;11.738;2023-12-04T03:54:34;25.75;;;13.70;;
48040;SDS011;33815;48.386;11.738;2023-12-04T03:56:59;30.55;;;14.40;;
48040;SDS011;33815;48.386;11.738;2023-12-04T03:59:24;23.83;;;12.85;;
48040;SDS011;33815;48.386;11.738;2023-12-04T04:01:49;26.95;;;13.63;;
48040;SDS011;33815;48.386;11.738;2023-12-04T04:04:14;24.80;;;13.10;;
48040;SDS011;33815;48.386;11.738;2023-12-04T04:06:40;25.30;;;13.10;;
48040;SDS011;33815;48.386;11.738;2023-12-04T04:09:05;25.05;;;12.77;;
48040;SDS011;33815;48.386;11.738;2023-12-04T04:11:30;26.75;;;13.93;;
48040;SDS011;33815;48.386;11.738;2023-12-04T04:13:56;22.30;;;12.88;;
48040;SDS011;33815;48.386;11.738;2023-12-04T04:16:21;31.92;;;14.75;;
48040;SDS011;33815;48.386;11.738;2023-12-04T04:18:46;31.65;;;13.77;;
48040;SDS011;33815;48.386;11.738;2023-12-04T04:21:12;23.38;;;12.00;;
48040;SDS011;33815;48.386;11.738;2023-12-04T04:23:37;26.35;;;13.50;;
48040;SDS011;33815;48.386;11.738;2023-12-04T04:26:02;25.60;;;13.43;;
48040;SDS011;33815;48.386;11.738;2023-12-04T04:28:28;22.20;;;11.02;;
48040;SDS011;33815;48.386;11.738;2023-12-04T04:30:53;29.60;;;12.43;;
48040;SDS011;33815;48.386;11.738;2023-12-04T04:33:18;25.85;;;12.98;;
48040;SDS011;33815;48.386;11.738;2023-12-04T04:35:43;24.35;;;12.65;;
48040;SDS011;33815;48.386;11.738;2023-12-04T04:38:09;30.15;;;13.27;;
48040;SDS011;33815;48.386;11.738;2023-12-04T04:40:34;21.95;;;11.45;;
48040;SDS011;33815;48.386;11.738;2023-12-04T04:43:00;26.77;;;13.02;;
48040;SDS011;33815;48.386;11.738;2023-12-04T04:45:25;25.60;;;12.20;;
48040;SDS011;33815;48.386;11.738;2023-12-04T04:47:50;24.50;;;12.68;;
48040;SDS011;33815;48.386;11.738;2023-12-04T04:50:15;23.40;;;11.02;;
48040;SDS011;33815;48.386;11.738;2023-12-04T04:52:41;22.15;;;11.30;;
48040;SDS011;33815;48.386;11.738;2023-12-04T04:55:06;23.75;;;11.27;;
48040;SDS011;33815;48.386;11.738;2023-12-04T04:57:31;24.33;;;12.13;;
48040;SDS011;33815;48.386;11.738;2023-12-04T04:59:57;24.33;;;11.57;;
48040;SDS011;33815;48.386;11.738;2023-12-04T05:02:22;20.60;;;11.18;;
48040;SDS011;33815;48.386;11.738;2023-12-04T05:04:47;19.95;;;11.23;;
48040;SDS011;33815;48.386;11.738;2023-12-04T05:07:12;23.35;;;11.88;;
48040;SDS011;33815;48.386;11.738;2023-12-04T05:09:38;22.15;;;12.05;;
48040;SDS011;33815;48.386;11.738;2023-12-04T05:12:03;21.33;;;12.15;;
48040;SDS011;33815;48.386;11.738;2023-12-04T05:14:29;21.23;;;12.10;;
48040;SDS011;33815;48.386;11.738;2023-12-04T05:16:54;25.95;;;12.50;;
48040;SDS011;33815;48.386;11.738;2023-12-04T05:19:19;23.08;;;12.18;;
48040;SDS011;33815;48.386;11.738;2023-12-04T05:21:44;24.48;;;11.60;;
48040;SDS011;33815;48.386;11.738;2023-12-04T05:24:10;21.60;;;11.30;;
48040;SDS011;33815;48.386;11.738;2023-12-04T05:26:35;15.68;;;11.05;;
48040;SDS011;33815;48.386;11.738;2023-12-04T05:29:00;23.17;;;12.07;;
48040;SDS011;33815;48.386;11.738;2023-12-04T05:31:26;19.38;;;11.10;;
48040;SDS011;33815;48.386;11.738;2023-12-04T05:33:51;24.55;;;12.40;;
48040;SDS011;33815;48.386;11.738;2023-12-04T05:36:16;24.48;;;12.68;;
48040;SDS011;33815;48.386;11.738;2023-12-04T05:38:42;22.23;;;11.57;;
48040;SDS011;33815;48.386;11.738;2023-12-04T05:41:07;25.70;;;13.27;;
48040;SDS011;33815;48.386;11.738;2023-12-04T05:43:32;24.23;;;13.15;;
48040;SDS011;33815;48.386;11.738;2023-12-04T05:45:57;24.35;;;12.18;;
48040;SDS011;33815;48.386;11.738;2023-12-04T05:48:23;22.48;;;11.98;;
48040;SDS011;33815;48.386;11.738;2023-12-04T05:50:48;27.13;;;12.90;;
48040;SDS011;33815;48.386;11.738;2023-12-04T05:53:14;21.60;;;11.27;;
48040;SDS011;33815;48.386;11.738;2023-12-04T05:55:39;30.45;;;12.85;;
48040;SDS011;33815;48.386;11.738;2023-12-04T05:58:04;29.92;;;13.43;;
48040;SDS011;33815;48.386;11.738;2023-12-04T06:00:29;20.67;;;12.32;;
48040;SDS011;33815;48.386;11.738;2023-12-04T06:02:55;23.05;;;12.82;;
48040;SDS011;33815;48.386;11.738;2023-12-04T06:05:20;21.85;;;11.90;;
48040;SDS011;33815;48.386;11.738;2023-12-04T06:07:45;20.77;;;11.95;;
48040;SDS011;33815;48.386;11.738;2023-12-04T06:10:11;27.45;;;13.65;;
48040;SDS011;33815;48.386;11.738;2023-12-04T06:12:36;24.23;;;12.18;;
48040;SDS011;33815;48.386;11.738;2023-12-04T06:15:01;22.52;;;11.43;;
48040;SDS011;33815;48.386;11.738;2023-12-04T06:17:27;24.13;;;12.15;;
48040;SDS011;33815;48.386;11.738;2023-12-04T06:19:52;22.73;;;12.30;;
48040;SDS011;33815;48.386;11.738;2023-12-04T06:22:18;23.25;;;11.57;;
48040;SDS011;33815;48.386;11.738;2023-12-04T06:24:46;21.67;;;11.40;;
48040;SDS011;33815;48.386;11.738;2023-12-04T06:27:15;22.63;;;12.00;;
48040;SDS011;33815;48.386;11.738;2023-12-04T06:29:43;22.00;;;11.95;;
48040;SDS011;33815;48.386;11.738;2023-12-04T06:32:09;25.75;;;12.70;;
48040;SDS011;33815;48.386;11.738;2023-12-04T06:34:35;16.42;;;11.57;;
48040;SDS011;33815;48.386;11.738;2023-12-04T06:37:04;23.50;;;12.20;;
48040;SDS011;33815;48.386;11.738;2023-12-04T06:39:34;20.77;;;10.77;;
48040;SDS011;33815;48.386;11.738;2023-12-04T06:42:03;24.83;;;12.43;;
48040;SDS011;33815;48.386;11.738;2023-12-04T06:44:29;22.13;;;12.32;;
48040;SDS011;33815;48.386;11.738;2023-12-04T06:46:55;22.58;;;11.73;;
48040;SDS011;33815;48.386;11.738;2023-12-04T06:49:24;22.27;;;11.60;;
48040;SDS011;33815;48.386;11.738;2023-12-04T06:51:51;24.58;;;12.23;;
48040;SDS011;33815;48.386;11.738;2023-12-04T06:54:16;24.52;;;12.02;;
48040;SDS011;33815;48.386;11.738;2023-12-04T06:56:43;26.58;;;13.32;;
48040;SDS011;33815;48.386;11.738;2023-12-04T06:59:08;18.15;;;11.02;;
48040;SDS011;33815;48.386;11.738;2023-12-04T07:01:33;23.00;;;12.70;;
48040;SDS011;33815;48.386;11.738;2023-12-04T07:03:58;20.05;;;11.50;;
48040;SDS011;33815;48.386;11.738;2023-12-04T07:06:24;26.33;;;13.18;;
48040;SDS011;33815;48.386;11.738;2023-12-04T07:08:49;26.65;;;13.73;;
48040;SDS011;33815;48.386;11.738;2023-12-04T07:11:14;27.17;;;13.52;;
48040;SDS011;33815;48.386;11.738;2023-12-04T07:13:40;27.88;;;12.80;;
48040;SDS011;33815;48.386;11.738;2023-12-04T07:16:07;26.17;;;13.18;;
48040;SDS011;33815;48.386;11.738;2023-12-04T07:18:32;25.27;;;13.85;;
48040;SDS011;33815;48.386;11.738;2023-12-04T07:20:58;27.55;;;13.85;;
48040;SDS011;33815;48.386;11.738;2023-12-04T07:23:23;26.60;;;12.70;;
48040;SDS011;33815;48.386;11.738;2023-12-04T07:25:48;23.15;;;13.57;;
48040;SDS011;33815;48.386;11.738;2023-12-04T07:28:13;24.88;;;12.88;;
48040;SDS011;33815;48.386;11.738;2023-12-04T07:30:39;27.45;;;14.35;;
48040;SDS011;33815;48.386;11.738;2023-12-04T07:33:04;27.63;;;13.93;;
48040;SDS011;33815;48.386;11.738;2023-12-04T07:35:29;23.40;;;13.63;;
48040;SDS011;33815;48.386;11.738;2023-12-04T07:37:54;29.95;;;14.25;;
48040;SDS011;33815;48.386;11.738;2023-12-04T07:40:20;29.35;;;14.93;;
48040;SDS011;33815;48.386;11.738;2023-12-04T07:42:47;32.38;;;15.70;;
48040;SDS011;33815;48.386;11.738;2023-12-04T07:45:13;28.38;;;15.27;;
48040;SDS011;33815;48.386;11.738;2023-12-04T07:47:39;28.50;;;16.17;;
48040;SDS011;33815;48.386;11.738;2023-12-04T07:50:05;27.30;;;14.80;;
48040;SDS011;33815;48.386;11.738;2023-12-04T07:52:30;32.75;;;16.75;;
48040;SDS011;33815;48.386;11.738;2023-12-04T07:54:56;33.08;;;15.40;;
48040;SDS011;33815;48.386;11.738;2023-12-04T07:57:22;29.55;;;15.68;;
48040;SDS011;33815;48.386;11.738;2023-12-04T07:59:47;27.88;;;15.05;;
48040;SDS011;33815;48.386;11.738;2023-12-04T08:02:13;30.80;;;15.63;;
48040;SDS011;33815;48.386;11.738;2023-12-04T08:04:38;30.67;;;16.23;;
48040;SDS011;33815;48.386;11.738;2023-12-04T08:07:03;28.08;;;15.60;;
48040;SDS011;33815;48.386;11.738;2023-12-04T08:09:28;35.88;;;15.60;;
48040;SDS011;33815;48.386;11.738;2023-12-04T08:11:54;28.30;;;16.35;;
48040;SDS011;33815;48.386;11.738;2023-12-04T08:14:19;29.70;;;15.75;;
48040;SDS011;33815;48.386;11.738;2023-12-04T08:16:44;33.03;;;18.20;;
48040;SDS011;33815;48.386;11.738;2023-12-04T08:19:10;30.45;;;16.52;;
48040;SDS011;33815;48.386;11.738;2023-12-04T08:21:35;31.52;;;16.02;;
48040;SDS011;33815;48.386;11.738;2023-12-04T08:24:00;30.73;;;15.38;;
48040;SDS011;33815;48.386;11.738;2023-12-04T08:26:25;32.45;;;17.33;;
48040;SDS011;33815;48.386;11.738;2023-12-04T08:28:51;27.67;;;14.20;;
48040;SDS011;33815;48.386;11.738;2023-12-04T08:31:17;26.52;;;15.95;;
48040;SDS011;33815;48.386;11.738;2023-12-04T08:33:42;33.75;;;15.50;;
48040;SDS011;33815;48.386;11.738;2023-12-04T08:36:08;29.70;;;15.93;;
48040;SDS011;33815;48.386;11.738;2023-12-04T08:38:34;30.35;;;15.30;;
48040;SDS011;33815;48.386;11.738;2023-12-04T08:41:00;32.50;;;16.10;;
48040;SDS011;33815;48.386;11.738;2023-12-04T08:43:25;28.95;;;15.52;;
48040;SDS011;33815;48.386;11.738;2023-12-04T08:45:50;30.30;;;16.77;;
48040;SDS011;33815;48.386;11.738;2023-12-04T08:48:16;26.58;;;16.13;;
48040;SDS011;33815;48.386;11.738;2023-12-04T08:50:41;28.75;;;16.20;;
48040;SDS011;33815;48.386;11.738;2023-12-04T08:53:06;31.17;;;16.98;;
48040;SDS011;33815;48.386;11.738;2023-12-04T08:55:31;29.42;;;15.45;;
48040;SDS011;33815;48.386;11.738;2023-12-04T08:57:57;30.30;;;16.27;;
48040;SDS011;33815;48.386;11.738;2023-12-04T09:00:22;32.40;;;15.13;;
48040;SDS011;33815;48.386;11.738;2023-12-04T09:02:48;29.80;;;16.55;;
48040;SDS011;33815;48.386;11.738;2023-12-04T09:05:13;27.58;;;16.55;;
48040;SDS011;33815;48.386;11.738;2023-12-04T09:07:39;26.02;;;16.08;;
48040;SDS011;33815;48.386;11.738;2023-12-04T09:10:04;30.45;;;15.63;;
48040;SDS011;33815;48.386;11.738;2023-12-04T09:12:30;29.63;;;15.70;;
48040;SDS011;33815;48.386;11.738;2023-12-04T09:14:55;31.55;;;16.45;;
48040;SDS011;33815;48.386;11.738;2023-12-04T09:17:20;32.15;;;16.63;;
48040;SDS011;33815;48.386;11.738;2023-12-04T09:19:46;31.15;;;15.80;;
48040;SDS011;33815;48.386;11.738;2023-12-04T09:22:11;25.50;;;14.23;;
48040;SDS011;33815;48.386;11.738;2023-12-04T09:24:36;26.98;;;14.63;;
48040;SDS011;33815;48.386;11.738;2023-12-04T09:27:01;26.55;;;14.85;;
48040;SDS011;33815;48.386;11.738;2023-12-04T09:29:27;29.58;;;14.80;;
48040;SDS011;33815;48.386;11.738;2023-12-04T09:31:52;27.17;;;14.65;;
48040;SDS011;33815;48.386;11.738;2023-12-04T09:34:18;28.50;;;15.48;;
48040;SDS011;33815;48.386;11.738;2023-12-04T09:36:45;26.75;;;15.05;;
48040;SDS011;33815;48.386;11.738;2023-12-04T09:39:10;31.05;;;15.13;;
48040;SDS011;33815;48.386;11.738;2023-12-04T09:41:36;26.98;;;15.60;;
48040;SDS011;33815;48.386;11.738;2023-12-04T09:44:03;28.05;;;15.07;;
48040;SDS011;33815;48.386;11.738;2023-12-04T09:46:29;28.10;;;15.23;;
48040;SDS011;33815;48.386;11.738;2023-12-04T09:48:55;29.45;;;14.65;;
48040;SDS011;33815;48.386;11.738;2023-12-04T09:51:21;27.73;;;14.98;;
48040;SDS011;33815;48.386;11.738;2023-12-04T09:53:48;26.10;;;15.23;;
48040;SDS011;33815;48.386;11.738;2023-12-04T09:56:14;25.17;;;15.38;;
48040;SDS011;33815;48.386;11.738;2023-12-04T09:58:40;29.02;;;16.70;;
48040;SDS011;33815;48.386;11.738;2023-12-04T10:01:07;24.55;;;15.02;;
48040;SDS011;33815;48.386;11.738;2023-12-04T10:03:33;28.92;;;16.38;;
48040;SDS011;33815;48.386;11.738;2023-12-04T10:06:00;28.25;;;14.40;;
48040;SDS011;33815;48.386;11.738;2023-12-04T10:08:25;26.05;;;14.25;;
48040;SDS011;33815;48.386;11.738;2023-12-04T10:10:50;27.35;;;15.40;;
48040;SDS011;33815;48.386;11.738;2023-12-04T10:13:15;33.20;;;15.55;;
48040;SDS011;33815;48.386;11.738;2023-12-04T10:15:46;26.10;;;15.18;;
48040;SDS011;33815;48.386;11.738;2023-12-04T10:18:23;27.30;;;14.93;;
48040;SDS011;33815;48.386;11.738;2023-12-04T10:20:53;25.52;;;14.30;;
48040;SDS011;33815;48.386;11.738;2023-12-04T10:23:22;25.80;;;14.48;;
48040;SDS011;33815;48.386;11.738;2023-12-04T10:26:00;27.20;;;15.07;;
48040;SDS011;33815;48.386;11.738;2023-12-04T10:28:26;25.85;;;14.70;;
48040;SDS011;33815;48.386;11.738;2023-12-04T10:30:51;25.88;;;15.30;;
48040;SDS011;33815;48.386;11.738;2023-12-04T10:33:17;27.08;;;15.70;;
48040;SDS011;33815;48.386;11.738;2023-12-04T10:35:43;28.60;;;14.77;;
48040;SDS011;33815;48.386;11.738;2023-12-04T10:38:09;36.63;;;22.20;;
48040;SDS011;33815;48.386;11.738;2023-12-04T10:40:35;32.17;;;17.67;;
48040;SDS011;33815;48.386;11.738;2023-12-04T10:43:17;25.13;;;14.52;;
48040;SDS011;33815;48.386;11.738;2023-12-04T10:45:45;23.92;;;14.52;;
48040;SDS011;33815;48.386;11.738;2023-12-04T10:48:12;27.25;;;16.20;;
48040;SDS011;33815;48.386;11.738;2023-12-04T10:50:38;36.83;;;18.25;;
48040;SDS011;33815;48.386;11.738;2023-12-04T10:53:05;27.80;;;16.63;;
48040;SDS011;33815;48.386;11.738;2023-12-04T10:55:32;32.40;;;18.95;;
48040;SDS011;33815;48.386;11.738;2023-12-04T10:58:02;28.00;;;15.40;;
48040;SDS011;33815;48.386;11.738;2023-12-04T11:00:30;27.00;;;15.48;;
48040;SDS011;33815;48.386;11.738;2023-12-04T11:02:59;28.23;;;15.82;;
48040;SDS011;33815;48.386;11.738;2023-12-04T11:05:35;23.83;;;14.57;;
48040;SDS011;33815;48.386;11.738;2023-12-04T11:08:02;24.35;;;15.15;;
48040;SDS011;33815;48.386;11.738;2023-12-04T11:10:31;24.48;;;14.48;;
48040;SDS011;33815;48.386;11.738;2023-12-04T11:13:00;23.63;;;14.00;;
48040;SDS011;33815;48.386;11.738;2023-12-04T11:15:31;30.02;;;15.73;;
48040;SDS011;33815;48.386;11.738;2023-12-04T11:18:03;29.83;;;15.82;;
48040;SDS011;33815;48.386;11.738;2023-12-04T11:20:32;26.10;;;14.88;;
48040;SDS011;33815;48.386;11.738;2023-12-04T11:23:01;27.20;;;15.63;;
48040;SDS011;33815;48.386;11.738;2023-12-04T11:25:31;24.10;;;15.07;;
48040;SDS011;33815;48.386;11.738;2023-12-04T11:27:59;22.55;;;13.35;;
48040;SDS011;33815;48.386;11.738;2023-12-04T11:30:26;26.27;;;14.48;;
48040;SDS011;33815;48.386;11.738;2023-12-04T11:32:52;21.55;;;14.20;;
48040;SDS011;33815;48.386;11.738;2023-12-04T11:35:21;21.15;;;13.05;;
48040;SDS011;33815;48.386;11.738;2023-12-04T11:37:50;25.88;;;14.10;;
48040;SDS011;33815;48.386;11.738;2023-12-04T11:40:17;25.40;;;14.73;;
48040;SDS011;33815;48.386;11.738;2023-12-04T11:42:42;27.88;;;14.57;;
48040;SDS011;33815;48.386;11.738;2023-12-04T11:45:08;26.65;;;15.15;;
48040;SDS011;33815;48.386;11.738;2023-12-04T11:47:50;28.67;;;15.07;;
48040;SDS011;33815;48.386;11.738;2023-12-04T11:50:17;24.70;;;14.70;;
48040;SDS011;33815;48.386;11.738;2023-12-04T11:52:44;22.05;;;13.75;;
48040;SDS011;33815;48.386;11.738;2023-12-04T11:55:10;22.15;;;13.32;;
48040;SDS011;33815;48.386;11.738;2023-12-04T11:57:35;25.17;;;13.85;;
48040;SDS011;33815;48.386;11.738;2023-12-04T12:02:33;26.08;;;15.88;;
48040;SDS011;33815;48.386;11.738;2023-12-04T12:04:58;24.75;;;14.18;;
48040;SDS011;33815;48.386;11.738;2023-12-04T12:07:24;26.02;;;14.65;;
48040;SDS011;33815;48.386;11.738;2023-12-04T12:09:49;26.50;;;14.95;;
48040;SDS011;33815;48.386;11.738;2023-12-04T12:12:15;26.42;;;14.40;;
48040;SDS011;33815;48.386;11.738;2023-12-04T12:14:40;26.58;;;15.00;;
48040;SDS011;33815;48.386;11.738;2023-12-04T12:17:05;25.33;;;13.57;;
48040;SDS011;33815;48.386;11.738;2023-12-04T12:19:31;25.88;;;15.10;;
48040;SDS011;33815;48.386;11.738;2023-12-04T12:21:57;23.52;;;15.30;;
48040;SDS011;33815;48.386;11.738;2023-12-04T12:24:23;29.70;;;15.43;;
48040;SDS011;33815;48.386;11.738;2023-12-04T12:26:49;29.48;;;15.32;;
48040;SDS011;33815;48.386;11.738;2023-12-04T12:29:15;23.90;;;14.10;;
48040;SDS011;33815;48.386;11.738;2023-12-04T12:31:40;27.00;;;14.93;;
48040;SDS011;33815;48.386;11.738;2023-12-04T12:34:05;26.48;;;15.38;;
48040;SDS011;33815;48.386;11.738;2023-12-04T12:36:31;26.15;;;14.88;;
48040;SDS011;33815;48.386;11.738;2023-12-04T12:38:58;29.00;;;14.98;;
48040;SDS011;33815;48.386;11.738;2023-12-04T12:41:25;24.08;;;15.30;;
48040;SDS011;33815;48.386;11.738;2023-12-04T12:43:51;28.42;;;14.57;;
48040;SDS011;33815;48.386;11.738;2023-12-04T12:46:18;25.15;;;14.82;;
48040;SDS011;33815;48.386;11.738;2023-12-04T12:48:43;22.83;;;13.65;;
48040;SDS011;33815;48.386;11.738;2023-12-04T12:51:09;26.90;;;14.95;;
48040;SDS011;33815;48.386;11.738;2023-12-04T12:53:36;26.20;;;14.52;;
48040;SDS011;33815;48.386;11.738;2023-12-04T12:56:01;23.15;;;13.13;;
48040;SDS011;33815;48.386;11.738;2023-12-04T12:58:28;22.40;;;14.35;;
48040;SDS011;33815;48.386;11.738;2023-12-04T13:00:53;30.80;;;14.85;;
48040;SDS011;33815;48.386;11.738;2023-12-04T13:03:19;24.08;;;14.07;;
48040;SDS011;33815;48.386;11.738;2023-12-04T13:05:45;22.00;;;13.70;;
48040;SDS011;33815;48.386;11.738;2023-12-04T13:08:11;24.75;;;14.18;;
48040;SDS011;33815;48.386;11.738;2023-12-04T13:10:37;22.92;;;13.00;;
48040;SDS011;33815;48.386;11.738;2023-12-04T13:13:03;27.05;;;15.05;;
48040;SDS011;33815;48.386;11.738;2023-12-04T13:15:28;21.55;;;13.85;;
48040;SDS011;33815;48.386;11.738;2023-12-04T13:17:53;22.67;;;13.55;;
48040;SDS011;33815;48.386;11.738;2023-12-04T13:20:19;28.67;;;14.55;;
48040;SDS011;33815;48.386;11.738;2023-12-04T13:22:44;23.77;;;13.98;;
48040;SDS011;33815;48.386;11.738;2023-12-04T13:25:10;23.20;;;13.52;;
48040;SDS011;33815;48.386;11.738;2023-12-04T13:27:36;27.67;;;14.73;;
48040;SDS011;33815;48.386;11.738;2023-12-04T13:30:05;27.98;;;15.68;;
48040;SDS011;33815;48.386;11.738;2023-12-04T13:32:34;26.85;;;14.43;;
48040;SDS011;33815;48.386;11.738;2023-12-04T13:35:00;21.67;;;13.93;;
48040;SDS011;33815;48.386;11.738;2023-12-04T13:37:25;26.83;;;14.88;;
48040;SDS011;33815;48.386;11.738;2023-12-04T13:39:53;23.63;;;14.30;;
48040;SDS011;33815;48.386;11.738;2023-12-04T13:42:23;25.05;;;15.50;;
48040;SDS011;33815;48.386;11.738;2023-12-04T13:45:11;19.95;;;13.25;;
48040;SDS011;33815;48.386;11.738;2023-12-04T13:47:40;31.40;;;15.80;;
48040;SDS011;33815;48.386;11.738;2023-12-04T13:50:06;28.05;;;16.65;;
48040;SDS011;33815;48.386;11.738;2023-12-04T13:52:34;30.42;;;17.60;;
48040;SDS011;33815;48.386;11.738;2023-12-04T13:55:00;31.02;;;16.73;;
48040;SDS011;33815;48.386;11.738;2023-12-04T13:57:25;26.67;;;17.10;;
48040;SDS011;33815;48.386;11.738;2023-12-04T13:59:58;28.17;;;15.93;;
48040;SDS011;33815;48.386;11.738;2023-12-04T14:02:24;30.23;;;16.73;;
48040;SDS011;33815;48.386;11.738;2023-12-04T14:04:50;28.13;;;16.63;;